Time;durP1;ratioP1;P1;durP2;ratioP2;P2;SDS_P1;SDS_P2;PMS_P1;PMS_P2;Temp;Humidity;BMP_temperature;BMP_pressure;BME280_temperature;BME280_humidity;BME280_pressure;Samples;Min_cycle;Max_cycle;Signal;HPM_P1;HPM_P2
2022/06/03 00:01:28;;;;;;;0.20;0.20;;;;;;;;;;5032562;28;20029;-70
2022/06/03 00:04:13;;;;;;;0.20;0.20;;;;;;;;;;5032627;28;20485;-71
2022/06/03 00:06:59;;;;;;;0.20;0.20;;;;;;;;;;5032099;28;20138;-70
2022/06/03 00:09:44;;;;;;;0.20;0.20;;;;;;;;;;5032487;28;20034;-70
2022/06/03 00:12:35;;;;;;;0.22;0.22;;;;;;;;;;5032465;28;20389;-69
2022/06/03 00:15:09;;;;;;;0.20;0.20;;;;;;;;;;5048041;28;20044;-71
2022/06/03 00:17:38;;;;;;;0.20;0.20;;;;;;;;;;5051914;28;20115;-70
2022/06/03 00:20:03;;;;;;;0.20;0.20;;;;;;;;;;5052139;28;20446;-71
2022/06/03 00:22:44;;;;;;;0.20;0.20;;;;;;;;;;5051755;28;20095;-70
2022/06/03 00:25:21;;;;;;;0.10;0.10;;;;;;;;;;5052278;28;20120;-72
2022/06/03 00:27:59;;;;;;;0.10;0.10;;;;;;;;;;5051365;28;20041;-72
2022/06/03 00:30:27;;;;;;;0.20;0.20;;;;;;;;;;5051338;28;20033;-72
2022/06/03 00:33:01;;;;;;;0.20;0.20;;;;;;;;;;5051059;28;20041;-70
2022/06/03 00:35:26;;;;;;;0.10;0.10;;;;;;;;;;5052071;28;20025;-72
2022/06/03 00:37:52;;;;;;;0.10;0.10;;;;;;;;;;5052136;28;20039;-71
2022/06/03 00:40:26;;;;;;;0.17;0.17;;;;;;;;;;5052213;28;20415;-72
2022/06/03 00:43:04;;;;;;;0.20;0.20;;;;;;;;;;5051088;28;20028;-71
2022/06/03 00:45:29;;;;;;;0.20;0.20;;;;;;;;;;5051805;28;20053;-71
2022/06/03 00:48:15;;;;;;;0.20;0.20;;;;;;;;;;5051728;28;20075;-71
2022/06/03 00:50:51;;;;;;;0.63;0.63;;;;;;;;;;5051278;28;20500;-71
2022/06/03 00:53:31;;;;;;;0.25;0.25;;;;;;;;;;5051831;28;20037;-71
2022/06/03 00:56:03;;;;;;;0.10;0.10;;;;;;;;;;5034723;28;20037;-71
2022/06/03 00:58:38;;;;;;;0.20;0.20;;;;;;;;;;5053306;28;20041;-71
2022/06/03 01:01:03;;;;;;;0.20;0.20;;;;;;;;;;5053915;28;20119;-71
2022/06/03 01:03:28;;;;;;;0.22;0.22;;;;;;;;;;5075262;28;20124;-71
2022/06/03 01:06:03;;;;;;;0.20;0.20;;;;;;;;;;5075147;28;20090;-71
2022/06/03 01:08:37;;;;;;;0.20;0.20;;;;;;;;;;5075557;28;20040;-71
2022/06/03 01:11:05;;;;;;;0.15;0.15;;;;;;;;;;5075266;28;20383;-71
2022/06/03 01:13:33;;;;;;;0.28;0.28;;;;;;;;;;5055192;28;20082;-71
2022/06/03 01:16:08;;;;;;;0.30;0.30;;;;;;;;;;5036860;28;20025;-72
2022/06/03 01:18:42;;;;;;;0.10;0.10;;;;;;;;;;5037397;28;20037;-71
2022/06/03 01:21:11;;;;;;;0.10;0.10;;;;;;;;;;5037266;28;20051;-71
2022/06/03 01:23:48;;;;;;;0.20;0.20;;;;;;;;;;5054986;28;20421;-70
2022/06/03 01:26:19;;;;;;;0.20;0.20;;;;;;;;;;5036770;28;20061;-71
2022/06/03 01:29:04;;;;;;;0.28;0.28;;;;;;;;;;5053987;28;20037;-72
2022/06/03 01:31:29;;;;;;;0.10;0.10;;;;;;;;;;5034972;28;20061;-70
2022/06/03 01:34:03;;;;;;;0.20;0.20;;;;;;;;;;5035010;28;20073;-70
2022/06/03 01:36:55;;;;;;;0.20;0.20;;;;;;;;;;5034967;28;20045;-70
2022/06/03 01:39:29;;;;;;;0.10;0.10;;;;;;;;;;5035050;28;20481;-71
2022/06/03 01:42:18;;;;;;;0.20;0.20;;;;;;;;;;5039284;28;20546;-71
2022/06/03 01:44:43;;;;;;;0.20;0.20;;;;;;;;;;5046704;28;20045;-70
2022/06/03 01:47:11;;;;;;;0.20;0.20;;;;;;;;;;5054538;28;20095;-70
2022/06/03 01:49:43;;;;;;;0.10;0.10;;;;;;;;;;5054397;28;20472;-70
2022/06/03 01:52:14;;;;;;;0.20;0.20;;;;;;;;;;5054344;28;20033;-70
2022/06/03 01:54:45;;;;;;;0.20;0.20;;;;;;;;;;5054481;28;20028;-70
2022/06/03 01:57:26;;;;;;;0.10;0.10;;;;;;;;;;5053696;28;20601;-70
2022/06/03 02:00:14;;;;;;;0.20;0.20;;;;;;;;;;5054326;28;20488;-71
2022/06/03 02:02:39;;;;;;;0.20;0.20;;;;;;;;;;5054755;28;20473;-70
2022/06/03 02:05:23;;;;;;;0.30;0.30;;;;;;;;;;5054339;28;20074;-71
2022/06/03 02:07:52;;;;;;;0.13;0.13;;;;;;;;;;5051831;28;20132;-71
2022/06/03 02:10:17;;;;;;;0.25;0.25;;;;;;;;;;5019882;28;20362;-71
2022/06/03 02:13:01;;;;;;;0.20;0.20;;;;;;;;;;5053325;28;20036;-70
2022/06/03 02:15:29;;;;;;;0.20;0.20;;;;;;;;;;5054179;28;20115;-71
2022/06/03 02:18:01;;;;;;;0.20;0.20;;;;;;;;;;5054041;28;20057;-71
2022/06/03 02:20:26;;;;;;;0.30;0.30;;;;;;;;;;5053924;28;20091;-70
2022/06/03 02:22:51;;;;;;;0.20;0.20;;;;;;;;;;5054051;28;20060;-70
2022/06/03 02:25:35;;;;;;;0.20;0.20;;;;;;;;;;5053951;28;20396;-70
2022/06/03 02:28:20;;;;;;;0.20;0.20;;;;;;;;;;5035771;28;20504;-69
2022/06/03 02:31:05;;;;;;;0.20;0.20;;;;;;;;;;5036209;28;20028;-70
2022/06/03 02:33:36;;;;;;;0.17;0.17;;;;;;;;;;5053703;28;20041;-70
2022/06/03 02:36:02;;;;;;;0.20;0.20;;;;;;;;;;5053755;28;20083;-70
2022/06/03 02:38:30;;;;;;;0.10;0.10;;;;;;;;;;5053910;28;20370;-71
2022/06/03 02:40:58;;;;;;;0.10;0.10;;;;;;;;;;5053769;28;20021;-71
2022/06/03 02:43:53;;;;;;;0.10;0.10;;;;;;;;;;5052943;28;20064;-71
2022/06/03 02:46:18;;;;;;;0.13;0.13;;;;;;;;;;5022928;28;20102;-71
2022/06/03 02:48:53;;;;;;;0.20;0.20;;;;;;;;;;5053667;28;20037;-71
2022/06/03 02:51:20;;;;;;;0.20;0.20;;;;;;;;;;5053718;28;20047;-72
2022/06/03 02:53:55;;;;;;;0.20;0.20;;;;;;;;;;5053725;28;20033;-70
2022/06/03 02:56:53;;;;;;;0.20;0.20;;;;;;;;;;5053155;28;20068;-71
2022/06/03 02:59:21;;;;;;;0.10;0.10;;;;;;;;;;5019514;28;20048;-71
2022/06/03 03:02:01;;;;;;;0.13;0.13;;;;;;;;;;5052499;28;20033;-70
2022/06/03 03:04:35;;;;;;;0.20;0.20;;;;;;;;;;5049145;28;20507;-70
2022/06/03 03:07:03;;;;;;;0.20;0.20;;;;;;;;;;5031699;28;20492;-70
2022/06/03 03:09:35;;;;;;;0.15;0.15;;;;;;;;;;5049678;28;20055;-71
2022/06/03 03:12:00;;;;;;;0.10;0.10;;;;;;;;;;5049619;28;20040;-70
2022/06/03 03:14:29;;;;;;;0.20;0.20;;;;;;;;;;5048613;28;20467;-71
2022/06/03 03:16:54;;;;;;;0.20;0.20;;;;;;;;;;5049247;28;20030;-71
2022/06/03 03:19:19;;;;;;;0.10;0.10;;;;;;;;;;5048768;28;20051;-70
2022/06/03 03:21:58;;;;;;;0.10;0.10;;;;;;;;;;5049403;28;20032;-72
2022/06/03 03:24:53;;;;;;;0.20;0.20;;;;;;;;;;5031561;28;20052;-73
2022/06/03 03:27:24;;;;;;;0.20;0.20;;;;;;;;;;5035082;28;20182;-73
2022/06/03 03:30:10;;;;;;;0.15;0.15;;;;;;;;;;5049041;28;20033;-72
2022/06/03 03:32:48;;;;;;;0.20;0.20;;;;;;;;;;5049268;28;20033;-70
2022/06/03 03:35:32;;;;;;;0.20;0.20;;;;;;;;;;5049477;28;20033;-70
2022/06/03 03:38:11;;;;;;;0.20;0.20;;;;;;;;;;5049353;28;20354;-71
2022/06/03 03:40:39;;;;;;;0.20;0.20;;;;;;;;;;5049105;28;20041;-70
2022/06/03 03:43:24;;;;;;;0.10;0.10;;;;;;;;;;5048198;28;20033;-71
2022/06/03 03:46:07;;;;;;;0.13;0.13;;;;;;;;;;5049189;28;20029;-70
2022/06/03 03:48:51;;;;;;;0.10;0.10;;;;;;;;;;5048926;28;20068;-71
2022/06/03 03:51:31;;;;;;;0.10;0.10;;;;;;;;;;5030342;28;20021;-70
2022/06/03 03:54:03;;;;;;;0.20;0.20;;;;;;;;;;5048603;28;20033;-70
2022/06/03 03:56:47;;;;;;;0.20;0.20;;;;;;;;;;5048603;28;20483;-70
2022/06/03 03:59:15;;;;;;;0.20;0.20;;;;;;;;;;5030797;28;20040;-72
2022/06/03 04:01:53;;;;;;;0.28;0.28;;;;;;;;;;5048139;28;20044;-72
2022/06/03 04:04:27;;;;;;;0.20;0.20;;;;;;;;;;5048481;28;20044;-71
2022/06/03 04:07:11;;;;;;;0.10;0.10;;;;;;;;;;5048566;28;20484;-71
2022/06/03 04:09:55;;;;;;;0.20;0.20;;;;;;;;;;5048428;28;20040;-70
2022/06/03 04:12:39;;;;;;;0.10;0.10;;;;;;;;;;5048925;28;20029;-71
2022/06/03 04:15:07;;;;;;;0.50;0.50;;;;;;;;;;5028823;28;20530;-70
2022/06/03 04:17:51;;;;;;;0.22;0.22;;;;;;;;;;5028845;28;20032;-71
2022/06/03 04:20:29;;;;;;;0.68;0.68;;;;;;;;;;5042902;28;20033;-70
2022/06/03 04:22:54;;;;;;;0.10;0.10;;;;;;;;;;5048411;28;20419;-69
2022/06/03 04:25:30;;;;;;;0.20;0.20;;;;;;;;;;5048723;28;20078;-70
2022/06/03 04:27:56;;;;;;;0.20;0.20;;;;;;;;;;5047957;28;20584;-71
2022/06/03 04:30:30;;;;;;;0.10;0.10;;;;;;;;;;5046835;28;20108;-70
2022/06/03 04:33:05;;;;;;;0.20;0.20;;;;;;;;;;5048642;28;20033;-70
2022/06/03 04:35:33;;;;;;;0.20;0.20;;;;;;;;;;5048896;28;20041;-69
2022/06/03 04:38:14;;;;;;;0.20;0.20;;;;;;;;;;5048346;28;20029;-69
2022/06/03 04:40:58;;;;;;;0.20;0.20;;;;;;;;;;5048488;28;20514;-70
2022/06/03 04:43:42;;;;;;;0.20;0.20;;;;;;;;;;5046163;28;20400;-70
2022/06/03 04:46:28;;;;;;;0.13;0.13;;;;;;;;;;5046494;28;20401;-70
2022/06/03 04:49:12;;;;;;;0.20;0.20;;;;;;;;;;5048501;28;20037;-70
2022/06/03 04:51:56;;;;;;;0.10;0.10;;;;;;;;;;5047276;28;20538;-70
2022/06/03 04:54:39;;;;;;;0.75;0.75;;;;;;;;;;5048470;28;20052;-70
2022/06/03 04:57:14;;;;;;;0.20;0.20;;;;;;;;;;5034800;28;20024;-70
2022/06/03 04:59:42;;;;;;;0.20;0.20;;;;;;;;;;5048043;28;20043;-72
2022/06/03 05:02:26;;;;;;;0.20;0.20;;;;;;;;;;5047071;28;20102;-71
2022/06/03 05:05:27;;;;;;;0.20;0.20;;;;;;;;;;5048263;28;20036;-71
2022/06/03 05:08:01;;;;;;;1.27;1.20;;;;;;;;;;4986831;28;20042;-72
2022/06/03 05:10:45;;;;;;;0.17;0.17;;;;;;;;;;5037038;28;20447;-70
2022/06/03 05:13:20;;;;;;;0.20;0.20;;;;;;;;;;5047338;28;20087;-70
2022/06/03 05:16:04;;;;;;;2.05;1.65;;;;;;;;;;5047945;28;20079;-71
2022/06/03 05:18:44;;;;;;;0.20;0.20;;;;;;;;;;5047807;28;20039;-71
2022/06/03 05:21:45;;;;;;;0.30;0.30;;;;;;;;;;5047178;28;20025;-70
2022/06/03 05:24:13;;;;;;;0.20;0.20;;;;;;;;;;4986474;28;20524;-71
2022/06/03 05:26:48;;;;;;;0.20;0.20;;;;;;;;;;5035912;28;20500;-71
2022/06/03 05:29:42;;;;;;;0.30;0.30;;;;;;;;;;5025162;28;20441;-71
2022/06/03 05:32:23;;;;;;;1.38;1.27;;;;;;;;;;5027499;28;20033;-70
2022/06/03 05:34:51;;;;;;;1.05;0.95;;;;;;;;;;5047635;28;20025;-71
2022/06/03 05:37:17;;;;;;;0.10;0.10;;;;;;;;;;5046633;28;20035;-71
2022/06/03 05:39:58;;;;;;;0.20;0.20;;;;;;;;;;5047809;28;20025;-70
2022/06/03 05:42:29;;;;;;;0.20;0.20;;;;;;;;;;5049349;28;20039;-71
2022/06/03 05:45:04;;;;;;;0.20;0.20;;;;;;;;;;5050635;28;20037;-70
2022/06/03 05:47:33;;;;;;;0.88;0.88;;;;;;;;;;5051140;28;20389;-70
2022/06/03 05:49:58;;;;;;;;;;;;;;;;;;5033081;28;20543;-70
2022/06/03 05:52:29;;;;;;;2.93;1.23;;;;;;;;;;5049615;28;19917;-71
2022/06/03 05:54:54;;;;;;;0.20;0.20;;;;;;;;;;5050929;28;20279;-70
2022/06/03 05:57:19;;;;;;;0.40;0.40;;;;;;;;;;5050121;28;20036;-71
2022/06/03 06:00:01;;;;;;;1.95;1.05;;;;;;;;;;5050722;28;20267;-70
2022/06/03 06:02:26;;;;;;;0.20;0.20;;;;;;;;;;5049427;28;20396;-70
2022/06/03 06:04:52;;;;;;;0.15;0.15;;;;;;;;;;5050795;28;20045;-70
2022/06/03 06:07:35;;;;;;;0.20;0.20;;;;;;;;;;5049316;28;20435;-71
2022/06/03 06:10:19;;;;;;;0.20;0.20;;;;;;;;;;5049613;28;20040;-70
2022/06/03 06:12:49;;;;;;;0.20;0.20;;;;;;;;;;5049717;28;20033;-71
2022/06/03 06:15:27;;;;;;;0.20;0.20;;;;;;;;;;5049755;28;20037;-70
2022/06/03 06:18:00;;;;;;;0.20;0.20;;;;;;;;;;5050862;28;20045;-71
2022/06/03 06:20:45;;;;;;;0.20;0.20;;;;;;;;;;5050226;28;20033;-70
2022/06/03 06:23:18;;;;;;;0.28;0.28;;;;;;;;;;5050915;28;20041;-70
2022/06/03 06:25:49;;;;;;;0.20;0.20;;;;;;;;;;5050087;28;20033;-69
2022/06/03 06:28:18;;;;;;;0.30;0.22;;;;;;;;;;5048472;28;20108;-71
2022/06/03 06:30:56;;;;;;;0.30;0.30;;;;;;;;;;5032551;28;20102;-70
2022/06/03 06:33:32;;;;;;;1.33;0.70;;;;;;;;;;5050485;28;20123;-71
2022/06/03 06:35:58;;;;;;;0.38;0.38;;;;;;;;;;5032199;28;20055;-72
2022/06/03 06:38:30;;;;;;;0.30;0.30;;;;;;;;;;5050185;28;20028;-71
2022/06/03 06:41:01;;;;;;;0.20;0.20;;;;;;;;;;5032483;28;20444;-72
2022/06/03 06:43:30;;;;;;;0.20;0.20;;;;;;;;;;5048721;28;20045;-71
2022/06/03 06:46:09;;;;;;;0.33;0.33;;;;;;;;;;5048474;28;20103;-73
2022/06/03 06:48:41;;;;;;;0.20;0.20;;;;;;;;;;5048976;28;20549;-72
2022/06/03 06:51:13;;;;;;;0.20;0.20;;;;;;;;;;5032147;28;20032;-71
2022/06/03 06:53:51;;;;;;;0.20;0.20;;;;;;;;;;5049277;28;20074;-71
2022/06/03 06:56:22;;;;;;;0.30;0.30;;;;;;;;;;5031356;28;20029;-73
2022/06/03 06:58:59;;;;;;;0.20;0.20;;;;;;;;;;5047830;28;20545;-73
2022/06/03 07:01:28;;;;;;;0.20;0.20;;;;;;;;;;5049009;28;20064;-70
2022/06/03 07:04:02;;;;;;;0.20;0.20;;;;;;;;;;5049677;28;20040;-70
2022/06/03 07:06:34;;;;;;;0.20;0.20;;;;;;;;;;5045370;28;20025;-71
2022/06/03 07:09:09;;;;;;;0.30;0.30;;;;;;;;;;5038334;28;20061;-70
2022/06/03 07:11:48;;;;;;;1.65;0.57;;;;;;;;;;5029793;28;20051;-72
2022/06/03 07:14:22;;;;;;;0.20;0.20;;;;;;;;;;5029909;28;20034;-72
2022/06/03 07:19:52;;;;;;;0.95;0.68;;;;;;;;;;5029428;28;20559;-72
2022/06/03 07:22:25;;;;;;;0.30;0.30;;;;;;;;;;5029615;28;20029;-72
2022/06/03 07:25:09;;;;;;;0.30;0.30;;;;;;;;;;5029619;28;20033;-72
2022/06/03 07:28:01;;;;;;;0.20;0.20;;;;;;;;;;5042624;28;20040;-71
2022/06/03 07:30:30;;;;;;;0.30;0.30;;;;;;;;;;5013191;28;20080;-72
2022/06/03 07:32:57;;;;;;;0.40;0.40;;;;;;;;;;5029378;28;20034;-72
2022/06/03 07:35:33;;;;;;;0.20;0.20;;;;;;;;;;5011281;28;20036;-71
2022/06/03 07:38:05;;;;;;;0.30;0.30;;;;;;;;;;5033777;28;20045;-73
2022/06/03 07:40:53;;;;;;;5.28;1.15;;;;;;;;;;5036157;28;20036;-72
2022/06/03 07:43:28;;;;;;;0.82;0.82;;;;;;;;;;5039618;28;20166;-71
2022/06/03 07:45:59;;;;;;;0.52;0.43;;;;;;;;;;5031775;28;20063;-71
2022/06/03 07:48:26;;;;;;;0.40;0.40;;;;;;;;;;5049168;28;20032;-70
2022/06/03 07:50:57;;;;;;;0.30;0.30;;;;;;;;;;5045344;28;20040;-72
2022/06/03 07:53:51;;;;;;;0.40;0.40;;;;;;;;;;5046979;28;20439;-70
2022/06/03 07:56:21;;;;;;;8.63;1.67;;;;;;;;;;5044725;28;20068;-70
2022/06/03 07:58:47;;;;;;;1.70;1.08;;;;;;;;;;5031259;28;20040;-73
2022/06/03 08:01:25;;;;;;;0.30;0.30;;;;;;;;;;5042493;28;20033;-72
2022/06/03 08:03:50;;;;;;;2.92;1.67;;;;;;;;;;5034947;28;20068;-73
2022/06/03 08:06:24;;;;;;;3.08;0.88;;;;;;;;;;5010073;28;20086;-72
2022/06/03 08:11:34;;;;;;;1.15;1.13;;;;;;;;;;5028883;28;20469;-73
2022/06/03 08:14:00;;;;;;;0.20;0.20;;;;;;;;;;5029149;28;20041;-73
2022/06/03 08:16:26;;;;;;;0.60;0.60;;;;;;;;;;5015937;28;20037;-73
2022/06/03 08:18:54;;;;;;;4.57;1.95;;;;;;;;;;5031597;28;20073;-73
2022/06/03 08:21:26;;;;;;;1.38;1.27;;;;;;;;;;5028465;28;20370;-73
2022/06/03 08:23:53;;;;;;;0.30;0.30;;;;;;;;;;5026824;28;20041;-73
2022/06/03 08:26:20;;;;;;;3.92;0.80;;;;;;;;;;5034029;28;20050;-72
2022/06/03 08:28:52;;;;;;;0.32;0.32;;;;;;;;;;5065674;28;20036;-72
2022/06/03 08:31:20;;;;;;;1.25;1.10;;;;;;;;;;5062733;28;20032;-73
2022/06/03 08:33:54;;;;;;;6.63;2.08;;;;;;;;;;5060970;28;20115;-72
2022/06/03 08:36:24;;;;;;;2.80;0.85;;;;;;;;;;5049357;28;20032;-71
2022/06/03 08:38:57;;;;;;;0.82;0.75;;;;;;;;;;5045897;28;20068;-73
2022/06/03 08:41:26;;;;;;;2.42;1.05;;;;;;;;;;5018412;28;20120;-74
2022/06/03 08:44:06;;;;;;;4.97;1.65;;;;;;;;;;5038916;28;20056;-73
2022/06/03 08:46:58;;;;;;;1.02;0.65;;;;;;;;;;5020321;28;20555;-72
2022/06/03 08:49:27;;;;;;;20.25;1.83;;;;;;;;;;5022727;28;20123;-72
2022/06/03 08:52:00;;;;;;;13.32;2.28;;;;;;;;;;5045990;28;20024;-73
2022/06/03 08:54:35;;;;;;;6.90;2.85;;;;;;;;;;5045881;28;20040;-72
2022/06/03 08:57:16;;;;;;;7.28;2.03;;;;;;;;;;5046511;28;20128;-74
2022/06/03 08:59:44;;;;;;;9.25;2.53;;;;;;;;;;5045975;28;20040;-75
2022/06/03 09:02:14;;;;;;;8.15;0.90;;;;;;;;;;5045829;28;20036;-74
2022/06/03 09:04:39;;;;;;;;;;;;;;;;;;5028617;28;20087;-74
2022/06/03 09:07:05;;;;;;;4.43;1.20;;;;;;;;;;5038343;28;19920;-75
2022/06/03 09:09:33;;;;;;;6.05;2.08;;;;;;;;;;5059633;28;20037;-75
2022/06/03 09:12:08;;;;;;;4.82;1.92;;;;;;;;;;5052433;28;20041;-75
2022/06/03 09:14:34;;;;;;;0.60;0.60;;;;;;;;;;5045920;28;20088;-75
2022/06/03 09:17:18;;;;;;;0.35;0.35;;;;;;;;;;5045882;28;20423;-75
2022/06/03 09:19:45;;;;;;;10.20;2.17;;;;;;;;;;5049023;28;20036;-74
2022/06/03 09:22:16;;;;;;;2.15;1.25;;;;;;;;;;5045744;28;20048;-74
2022/06/03 09:24:42;;;;;;;7.93;1.63;;;;;;;;;;5046145;28;20037;-74
2022/06/03 09:27:10;;;;;;;0.70;0.70;;;;;;;;;;5049754;28;20091;-73
2022/06/03 09:29:35;;;;;;;0.52;0.47;;;;;;;;;;5048992;28;20525;-75
2022/06/03 09:32:02;;;;;;;2.58;1.40;;;;;;;;;;5049044;28;20082;-74
2022/06/03 09:34:48;;;;;;;4.28;1.33;;;;;;;;;;5048995;28;20029;-74
2022/06/03 09:37:34;;;;;;;3.40;1.65;;;;;;;;;;5046529;28;20049;-75
2022/06/03 09:40:01;;;;;;;6.75;1.10;;;;;;;;;;5048550;28;20087;-74
2022/06/03 09:42:29;;;;;;;1.77;1.33;;;;;;;;;;5048664;28;20202;-74
2022/06/03 09:44:56;;;;;;;4.93;1.88;;;;;;;;;;5049328;28;20539;-73
2022/06/03 09:47:23;;;;;;;2.58;1.10;;;;;;;;;;5026676;28;20045;-74
2022/06/03 09:49:50;;;;;;;7.25;2.28;;;;;;;;;;5042665;28;20051;-74
2022/06/03 09:52:17;;;;;;;3.17;2.97;;;;;;;;;;5047712;28;20048;-74
2022/06/03 09:54:44;;;;;;;4.57;2.15;;;;;;;;;;5048691;28;20065;-75
2022/06/03 09:57:31;;;;;;;6.75;2.67;;;;;;;;;;5048821;28;20090;-75
2022/06/03 10:00:13;;;;;;;2.38;1.08;;;;;;;;;;5047683;28;20037;-74
2022/06/03 10:02:39;;;;;;;3.92;1.75;;;;;;;;;;5048927;28;20123;-75
2022/06/03 10:05:05;;;;;;;0.70;0.63;;;;;;;;;;5047823;28;20120;-72
2022/06/03 10:07:33;;;;;;;2.38;1.20;;;;;;;;;;5040985;28;20038;-70
2022/06/03 10:12:49;;;;;;;8.63;2.47;;;;;;;;;;5042137;28;20029;-68
2022/06/03 10:18:01;;;;;;;4.00;1.45;;;;;;;;;;5035063;28;20162;-68
2022/06/03 10:20:27;;;;;;;4.30;1.17;;;;;;;;;;5040853;28;20029;-68
2022/06/03 10:22:54;;;;;;;0.90;0.85;;;;;;;;;;5036935;28;20119;-67
2022/06/03 10:25:20;;;;;;;0.40;0.40;;;;;;;;;;5044955;28;20035;-67
2022/06/03 10:27:46;;;;;;;1.85;1.27;;;;;;;;;;5037821;28;20033;-69
2022/06/03 10:30:13;;;;;;;1.40;1.05;;;;;;;;;;5046990;28;20492;-69
2022/06/03 10:32:38;;;;;;;7.60;1.83;;;;;;;;;;5061242;28;20471;-69
2022/06/03 10:35:13;;;;;;;2.38;1.15;;;;;;;;;;5068740;28;20119;-69
2022/06/03 10:37:46;;;;;;;3.15;1.70;;;;;;;;;;5067999;28;20028;-69
2022/06/03 10:40:12;;;;;;;2.90;1.10;;;;;;;;;;5046165;28;20040;-69
2022/06/03 10:42:40;;;;;;;1.42;0.80;;;;;;;;;;5068105;28;20025;-68
2022/06/03 10:45:08;;;;;;;1.42;1.33;;;;;;;;;;5068230;28;20112;-69
2022/06/03 10:47:35;;;;;;;10.35;1.50;;;;;;;;;;5068153;28;20093;-69
2022/06/03 10:50:03;;;;;;;7.10;1.70;;;;;;;;;;5067730;28;20032;-68
2022/06/03 11:01:07;;;;;;;9.00;1.60;;;;;;;;;;5067879;28;20029;-73
2022/06/03 11:03:34;;;;;;;0.50;0.50;;;;;;;;;;5067580;28;20036;-71
2022/06/03 11:06:11;;;;;;;1.40;1.02;;;;;;;;;;5067006;28;20032;-72
2022/06/03 11:08:46;;;;;;;8.98;1.20;;;;;;;;;;5067893;28;20040;-72
2022/06/03 11:11:12;;;;;;;6.35;2.15;;;;;;;;;;5067936;28;20434;-72
2022/06/03 11:13:39;;;;;;;2.17;1.00;;;;;;;;;;5067935;28;20028;-72
2022/06/03 11:16:15;;;;;;;2.40;0.80;;;;;;;;;;5065608;28;20484;-74
2022/06/03 11:18:42;;;;;;;1.08;0.85;;;;;;;;;;5067588;28;20036;-73
2022/06/03 11:21:23;;;;;;;3.85;1.52;;;;;;;;;;5056790;28;20108;-74
2022/06/03 11:23:49;;;;;;;0.45;0.45;;;;;;;;;;5023333;28;20124;-72
2022/06/03 11:26:15;;;;;;;1.88;1.00;;;;;;;;;;5029481;28;20044;-72
2022/06/03 11:28:47;;;;;;;3.33;1.95;;;;;;;;;;5029171;28;20026;-73
2022/06/03 11:31:13;;;;;;;7.65;1.65;;;;;;;;;;5037989;28;20033;-71
2022/06/03 11:33:42;;;;;;;1.13;0.85;;;;;;;;;;5015344;28;20055;-73
2022/06/03 11:36:11;;;;;;;2.95;2.10;;;;;;;;;;5047505;28;20017;-73
2022/06/03 11:38:58;;;;;;;3.70;0.95;;;;;;;;;;5049435;28;20123;-72
2022/06/03 11:41:30;;;;;;;0.45;0.45;;;;;;;;;;5045203;28;20441;-72
2022/06/03 11:43:55;;;;;;;1.90;0.95;;;;;;;;;;5030757;28;20036;-73
2022/06/03 11:46:41;;;;;;;1.98;1.23;;;;;;;;;;5049280;28;20114;-73
2022/06/03 11:49:08;;;;;;;2.50;1.17;;;;;;;;;;5039233;28;20053;-72
2022/06/03 11:51:34;;;;;;;2.83;0.73;;;;;;;;;;5049194;28;20024;-72
2022/06/03 11:54:00;;;;;;;1.33;0.65;;;;;;;;;;5049074;28;20137;-73
2022/06/03 11:56:28;;;;;;;2.55;1.23;;;;;;;;;;5049439;28;20116;-73
2022/06/03 11:58:57;;;;;;;0.40;0.40;;;;;;;;;;5049044;28;20380;-74
2022/06/03 12:01:22;;;;;;;;;;;;;;;;;;5049554;28;20060;-74
2022/06/03 12:04:02;;;;;;;0.60;0.50;;;;;;;;;;5048848;28;19959;-74
2022/06/03 12:06:28;;;;;;;4.35;1.30;;;;;;;;;;5048271;28;20310;-73
2022/06/03 12:09:00;;;;;;;3.10;0.80;;;;;;;;;;5049360;28;20033;-75
2022/06/03 12:14:28;;;;;;;4.28;1.70;;;;;;;;;;5049280;28;20040;-72
2022/06/03 12:17:09;;;;;;;0.50;0.50;;;;;;;;;;5047790;28;20033;-71
2022/06/03 12:19:43;;;;;;;0.60;0.60;;;;;;;;;;5048529;28;20037;-71
2022/06/03 12:22:18;;;;;;;0.55;0.55;;;;;;;;;;5046704;28;20507;-73
2022/06/03 12:24:44;;;;;;;0.68;0.68;;;;;;;;;;5039620;28;20043;-73
2022/06/03 12:27:12;;;;;;;1.08;0.98;;;;;;;;;;5028657;28;20041;-73
2022/06/03 12:29:40;;;;;;;1.33;0.97;;;;;;;;;;5032619;28;20057;-72
2022/06/03 12:32:13;;;;;;;2.60;1.70;;;;;;;;;;5036351;28;20041;-73
2022/06/03 12:34:39;;;;;;;0.40;0.40;;;;;;;;;;5011400;28;20083;-73
2022/06/03 12:37:23;;;;;;;0.60;0.60;;;;;;;;;;5011406;28;20033;-73
2022/06/03 12:39:56;;;;;;;1.00;1.00;;;;;;;;;;5028307;28;20033;-73
2022/06/03 12:42:28;;;;;;;0.40;0.40;;;;;;;;;;5028309;28;20033;-73
2022/06/03 12:44:57;;;;;;;0.57;0.50;;;;;;;;;;5028530;28;20025;-73
2022/06/03 12:47:23;;;;;;;0.50;0.50;;;;;;;;;;5028280;28;20120;-73
2022/06/03 12:49:51;;;;;;;0.70;0.70;;;;;;;;;;5010832;28;20124;-73
2022/06/03 12:52:25;;;;;;;1.10;0.80;;;;;;;;;;5027509;28;20053;-73
2022/06/03 12:55:09;;;;;;;0.68;0.68;;;;;;;;;;5028605;28;20112;-72
2022/06/03 12:57:48;;;;;;;1.90;1.05;;;;;;;;;;5028319;28;20030;-74
2022/06/03 13:00:13;;;;;;;3.25;1.38;;;;;;;;;;5028277;28;20061;-72
2022/06/03 13:02:49;;;;;;;0.70;0.52;;;;;;;;;;5028058;28;20118;-71
2022/06/03 13:05:33;;;;;;;0.80;0.70;;;;;;;;;;5028572;28;20108;-72
2022/06/03 13:08:01;;;;;;;0.50;0.50;;;;;;;;;;5027975;28;20124;-72
2022/06/03 13:10:28;;;;;;;2.38;1.73;;;;;;;;;;5028286;28;20072;-71
2022/06/03 13:12:54;;;;;;;0.40;0.40;;;;;;;;;;5028258;28;20397;-71
2022/06/03 13:15:20;;;;;;;0.50;0.50;;;;;;;;;;5027653;28;20041;-72
2022/06/03 13:18:07;;;;;;;2.15;0.80;;;;;;;;;;5028170;28;20042;-72
2022/06/03 13:20:39;;;;;;;2.45;1.48;;;;;;;;;;5028180;28;20030;-73
2022/06/03 13:23:19;;;;;;;0.90;0.85;;;;;;;;;;5027811;28;20388;-73
2022/06/03 13:25:50;;;;;;;0.60;0.50;;;;;;;;;;5008746;28;20075;-73
2022/06/03 13:28:33;;;;;;;0.32;0.32;;;;;;;;;;5010065;28;20037;-72
2022/06/03 13:31:19;;;;;;;0.70;0.65;;;;;;;;;;5027944;28;20038;-70
2022/06/03 13:34:03;;;;;;;2.30;1.20;;;;;;;;;;5028237;28;20040;-70
2022/06/03 13:36:35;;;;;;;2.92;0.80;;;;;;;;;;5010368;28;20108;-69
2022/06/03 13:39:02;;;;;;;0.30;0.30;;;;;;;;;;5028190;28;20041;-70
2022/06/03 13:44:36;;;;;;;0.40;0.40;;;;;;;;;;5039927;28;20130;-70
2022/06/03 13:47:04;;;;;;;2.15;0.90;;;;;;;;;;5047278;28;20051;-71
2022/06/03 13:49:29;;;;;;;1.35;0.70;;;;;;;;;;5041535;28;20032;-68
2022/06/03 13:52:11;;;;;;;0.50;0.50;;;;;;;;;;5041629;28;20033;-70
2022/06/03 13:54:36;;;;;;;0.40;0.40;;;;;;;;;;5028495;28;20041;-71
2022/06/03 13:57:02;;;;;;;0.50;0.50;;;;;;;;;;5027620;28;20037;-71
2022/06/03 13:59:31;;;;;;;2.65;0.60;;;;;;;;;;5027919;28;20187;-68
2022/06/03 14:01:57;;;;;;;4.57;0.80;;;;;;;;;;5028058;28;20481;-71
2022/06/03 14:04:27;;;;;;;0.63;0.63;;;;;;;;;;5028845;28;20045;-71
2022/06/03 14:07:03;;;;;;;0.43;0.43;;;;;;;;;;5013419;28;20087;-70
2022/06/03 14:09:34;;;;;;;0.90;0.60;;;;;;;;;;5030905;28;20038;-70
2022/06/03 14:12:05;;;;;;;0.57;0.40;;;;;;;;;;5041130;28;20376;-68
2022/06/03 14:14:34;;;;;;;0.73;0.73;;;;;;;;;;5046712;28;20029;-70
2022/06/03 14:17:10;;;;;;;0.50;0.50;;;;;;;;;;5034415;28;20120;-69
2022/06/03 14:19:41;;;;;;;1.13;0.88;;;;;;;;;;5033135;28;20044;-69
2022/06/03 14:22:09;;;;;;;0.55;0.55;;;;;;;;;;5030434;28;20037;-71
2022/06/03 14:24:37;;;;;;;0.40;0.40;;;;;;;;;;5063314;28;20037;-70
2022/06/03 14:27:12;;;;;;;0.73;0.65;;;;;;;;;;5070599;28;20055;-69
2022/06/03 14:29:48;;;;;;;0.50;0.50;;;;;;;;;;5070721;28;20039;-69
2022/06/03 14:32:21;;;;;;;0.50;0.50;;;;;;;;;;5070485;28;20117;-68
2022/06/03 14:34:50;;;;;;;0.25;0.25;;;;;;;;;;5052711;28;20063;-71
2022/06/03 14:37:19;;;;;;;1.10;0.70;;;;;;;;;;5070359;28;20029;-71
2022/06/03 14:39:44;;;;;;;;;;;;;;;;;;5070739;28;20024;-69
2022/06/03 14:42:12;;;;;;;0.40;0.40;;;;;;;;;;5065004;28;20011;-69
2022/06/03 14:44:43;;;;;;;0.30;0.30;;;;;;;;;;5050266;28;20040;-69
2022/06/03 14:47:08;;;;;;;0.30;0.30;;;;;;;;;;5049976;28;20037;-73
2022/06/03 14:49:47;;;;;;;0.40;0.40;;;;;;;;;;5031289;28;20489;-69
2022/06/03 14:52:13;;;;;;;;;;;;;;;;;;5050388;28;20033;-69
2022/06/03 14:54:50;;;;;;;0.35;0.35;;;;;;;;;;5050141;28;19915;-70
2022/06/03 14:57:25;;;;;;;0.43;0.43;;;;;;;;;;5045675;28;20493;-69
2022/06/03 15:00:06;;;;;;;0.30;0.30;;;;;;;;;;5030442;28;20044;-69
2022/06/03 15:02:51;;;;;;;0.30;0.30;;;;;;;;;;5045757;28;20037;-71
2022/06/03 15:05:16;;;;;;;0.30;0.30;;;;;;;;;;5049864;28;20033;-68
2022/06/03 15:07:44;;;;;;;0.30;0.30;;;;;;;;;;5050122;28;20041;-69
2022/06/03 15:10:12;;;;;;;0.40;0.40;;;;;;;;;;5049714;28;20033;-70
2022/06/03 15:12:49;;;;;;;0.60;0.60;;;;;;;;;;5049853;28;20033;-70
2022/06/03 15:15:20;;;;;;;0.30;0.30;;;;;;;;;;5062267;28;20035;-69
2022/06/03 15:17:46;;;;;;;0.40;0.40;;;;;;;;;;5054972;28;20473;-70
2022/06/03 15:20:14;;;;;;;0.40;0.40;;;;;;;;;;5064313;28;20031;-73
2022/06/03 15:22:42;;;;;;;0.40;0.40;;;;;;;;;;5069656;28;20029;-69
2022/06/03 15:25:08;;;;;;;0.38;0.38;;;;;;;;;;5069248;28;20169;-72
2022/06/03 15:27:35;;;;;;;0.40;0.40;;;;;;;;;;5051870;28;20053;-69
2022/06/03 15:30:17;;;;;;;0.40;0.40;;;;;;;;;;5069454;28;20514;-69
2022/06/03 15:32:43;;;;;;;0.30;0.30;;;;;;;;;;5069587;28;20111;-70
2022/06/03 15:35:14;;;;;;;0.30;0.30;;;;;;;;;;5069684;28;20047;-69
2022/06/03 15:37:39;;;;;;;0.30;0.30;;;;;;;;;;5069351;28;20041;-71
2022/06/03 15:40:05;;;;;;;1.55;1.05;;;;;;;;;;5052545;28;20087;-68
2022/06/03 15:42:31;;;;;;;0.30;0.30;;;;;;;;;;5049333;28;20068;-70
2022/06/03 15:45:02;;;;;;;0.50;0.50;;;;;;;;;;5049261;28;20060;-69
2022/06/03 15:47:35;;;;;;;0.40;0.40;;;;;;;;;;5049236;28;20033;-69